Time;durP1;ratioP1;P1;durP2;ratioP2;P2;SDS_P1;SDS_P2;PMS_P1;PMS_P2;Temp;Humidity;BMP_temperature;BMP_pressure;BME280_temperature;BME280_humidity;BME280_pressure;Samples;Min_cycle;Max_cycle;Signal;HPM_P1;HPM_P2
2022/03/03 00:02:22;;;;;;;17.73;12.73;;;2.60;99.90;;;;;;5051859;28;20464;-73
2022/03/03 00:04:50;;;;;;;14.83;11.33;;;2.70;99.90;;;;;;5051251;28;20474;-73
2022/03/03 00:07:17;;;;;;;17.23;11.63;;;2.80;99.90;;;;;;5051599;28;20600;-73
2022/03/03 00:09:45;;;;;;;15.87;11.77;;;2.70;99.90;;;;;;5051639;28;20446;-73
2022/03/03 00:12:12;;;;;;;17.10;12.27;;;2.70;99.90;;;;;;5051115;28;20464;-73
2022/03/03 00:14:39;;;;;;;16.17;12.47;;;2.70;99.90;;;;;;5050986;28;20489;-73
2022/03/03 00:17:07;;;;;;;17.13;11.47;;;2.80;99.90;;;;;;5051172;28;20453;-73
2022/03/03 00:19:34;;;;;;;17.57;12.30;;;2.80;99.90;;;;;;5051443;28;20586;-73
2022/03/03 00:22:01;;;;;;;20.07;13.57;;;2.80;99.90;;;;;;5051545;28;20454;-73
2022/03/03 00:24:28;;;;;;;16.93;12.13;;;2.80;99.90;;;;;;5050510;28;20466;-73
2022/03/03 00:26:57;;;;;;;23.40;13.40;;;2.80;99.90;;;;;;5051048;28;20507;-73
2022/03/03 00:29:24;;;;;;;16.23;12.63;;;2.80;99.90;;;;;;5051049;28;20453;-73
2022/03/03 00:31:51;;;;;;;15.60;11.87;;;2.80;99.90;;;;;;5050567;28;20485;-74
2022/03/03 00:34:18;;;;;;;17.23;12.73;;;3.00;99.90;;;;;;5050768;28;20493;-74
2022/03/03 00:36:45;;;;;;;21.00;13.97;;;3.00;99.90;;;;;;5051226;28;20805;-74
2022/03/03 00:39:12;;;;;;;17.13;13.00;;;2.90;99.90;;;;;;5050697;28;20465;-74
2022/03/03 00:41:39;;;;;;;23.37;12.10;;;3.00;99.90;;;;;;5050887;28;20462;-73
2022/03/03 00:44:09;;;;;;;17.03;11.60;;;3.00;99.90;;;;;;5050934;28;20807;-73
2022/03/03 00:46:36;;;;;;;14.10;11.37;;;2.80;99.90;;;;;;5050936;28;20884;-73
2022/03/03 00:49:04;;;;;;;19.63;13.37;;;2.90;99.90;;;;;;5050961;28;20477;-74
2022/03/03 00:51:32;;;;;;;17.53;11.70;;;2.80;99.90;;;;;;5050846;28;20458;-74
2022/03/03 00:53:59;;;;;;;20.70;13.13;;;2.80;99.90;;;;;;5050336;28;21025;-74
2022/03/03 00:56:26;;;;;;;17.80;12.37;;;2.80;99.90;;;;;;5050552;28;20454;-74
2022/03/03 00:58:53;;;;;;;18.13;14.10;;;2.80;99.90;;;;;;5050557;28;20450;-74
2022/03/03 01:01:22;;;;;;;19.87;13.70;;;2.80;99.90;;;;;;5050764;28;20457;-74
2022/03/03 01:03:49;;;;;;;17.80;12.03;;;2.90;99.90;;;;;;5050668;28;20469;-74
2022/03/03 01:06:16;;;;;;;16.07;13.53;;;2.80;99.90;;;;;;5050351;28;20855;-74
2022/03/03 01:08:43;;;;;;;21.60;13.57;;;2.80;99.90;;;;;;5050418;28;20512;-74
2022/03/03 01:11:10;;;;;;;17.67;11.53;;;2.80;99.90;;;;;;5050183;28;20461;-73
2022/03/03 01:13:37;;;;;;;19.47;12.97;;;2.90;99.90;;;;;;5050118;28;20501;-73
2022/03/03 01:16:05;;;;;;;17.37;13.57;;;3.00;99.90;;;;;;5050467;28;20500;-73
2022/03/03 01:18:34;;;;;;;20.30;14.37;;;2.90;99.90;;;;;;5050300;28;20458;-73
2022/03/03 01:21:01;;;;;;;17.40;12.83;;;3.00;99.90;;;;;;5050098;28;20454;-73
2022/03/03 01:23:28;;;;;;;20.67;13.27;;;3.10;99.90;;;;;;5050166;28;20466;-74
2022/03/03 01:25:55;;;;;;;18.23;13.37;;;3.10;99.90;;;;;;5049606;28;20457;-74
2022/03/03 01:28:22;;;;;;;17.00;12.87;;;3.00;99.90;;;;;;5050100;28;20458;-73
2022/03/03 01:30:49;;;;;;;18.07;12.67;;;2.90;99.90;;;;;;5050063;28;20460;-73
2022/03/03 01:33:17;;;;;;;21.23;14.70;;;2.90;99.90;;;;;;5049513;28;20481;-73
2022/03/03 01:35:45;;;;;;;17.93;12.90;;;3.00;99.90;;;;;;5049760;28;20513;-73
2022/03/03 01:38:12;;;;;;;19.83;14.20;;;3.00;99.90;;;;;;5049925;28;20465;-74
2022/03/03 01:40:39;;;;;;;16.57;12.57;;;3.10;99.90;;;;;;5049947;28;20450;-73
2022/03/03 01:43:07;;;;;;;17.53;12.03;;;2.90;99.90;;;;;;5049786;28;20454;-73
2022/03/03 01:45:34;;;;;;;24.43;14.73;;;3.00;99.90;;;;;;5049871;28;20947;-74
2022/03/03 01:48:02;;;;;;;18.90;14.20;;;2.80;99.90;;;;;;5049448;28;20458;-73
2022/03/03 01:50:29;;;;;;;20.77;15.00;;;2.80;99.90;;;;;;5049727;28;20536;-73
2022/03/03 01:52:57;;;;;;;23.23;14.40;;;2.70;99.90;;;;;;5049638;28;20965;-73
2022/03/03 01:55:26;;;;;;;16.60;13.00;;;2.70;99.90;;;;;;5049512;28;20497;-73
2022/03/03 01:57:53;;;;;;;21.00;13.73;;;2.70;99.90;;;;;;5049799;28;20537;-74
2022/03/03 02:00:20;;;;;;;19.70;13.80;;;2.80;99.90;;;;;;5049876;28;20454;-74
2022/03/03 02:02:48;;;;;;;23.70;15.40;;;2.90;99.90;;;;;;5049623;28;20454;-73
2022/03/03 02:05:16;;;;;;;21.93;14.10;;;3.00;99.90;;;;;;5049593;28;20470;-73
2022/03/03 02:07:43;;;;;;;19.87;13.60;;;2.90;99.90;;;;;;5049617;28;20457;-73
2022/03/03 02:10:11;;;;;;;18.70;14.23;;;2.90;99.90;;;;;;5049762;28;20449;-74
2022/03/03 02:12:39;;;;;;;17.10;13.27;;;3.00;99.90;;;;;;5049729;28;20457;-73
2022/03/03 02:15:07;;;;;;;19.93;13.87;;;3.00;99.90;;;;;;5049265;28;20486;-73
2022/03/03 02:17:35;;;;;;;19.90;14.53;;;3.10;99.90;;;;;;5049344;28;20461;-73
2022/03/03 02:20:07;;;;;;;18.87;14.50;;;3.10;99.90;;;;;;5049627;28;20462;-73
2022/03/03 02:22:35;;;;;;;20.47;13.50;;;3.10;99.90;;;;;;5049586;28;20453;-73
2022/03/03 02:25:03;;;;;;;22.10;15.50;;;3.00;99.90;;;;;;5049537;28;20563;-73
2022/03/03 02:27:30;;;;;;;24.23;15.23;;;3.00;99.90;;;;;;5049609;28;20453;-73
2022/03/03 02:29:58;;;;;;;17.50;13.30;;;3.00;99.90;;;;;;5049163;28;20453;-74
2022/03/03 02:32:25;;;;;;;20.43;15.53;;;2.90;99.90;;;;;;5048997;28;20486;-73
2022/03/03 02:34:52;;;;;;;21.33;14.90;;;2.90;99.90;;;;;;5049313;28;20497;-74
2022/03/03 02:37:21;;;;;;;20.37;15.70;;;3.00;99.90;;;;;;5049296;28;20466;-74
2022/03/03 02:39:48;;;;;;;19.30;14.07;;;3.10;99.90;;;;;;5048695;28;20454;-74
2022/03/03 02:42:15;;;;;;;17.93;13.60;;;3.20;99.90;;;;;;5049071;28;20445;-74
2022/03/03 02:44:42;;;;;;;18.97;14.10;;;3.10;99.90;;;;;;5048898;28;20473;-73
2022/03/03 02:47:09;;;;;;;31.37;14.60;;;3.20;99.90;;;;;;5049696;28;20465;-73
2022/03/03 02:49:36;;;;;;;18.60;14.90;;;3.20;99.90;;;;;;5053085;28;20488;-74
2022/03/03 02:52:04;;;;;;;19.20;15.00;;;3.20;99.90;;;;;;5053074;28;20462;-73
2022/03/03 02:54:33;;;;;;;20.47;13.73;;;3.20;99.90;;;;;;5052763;28;20497;-74
2022/03/03 02:59:44;;;;;;;22.30;16.33;;;3.10;99.90;;;;;;5052854;28;20861;-73
2022/03/03 03:02:11;;;;;;;20.50;15.13;;;3.10;99.90;;;;;;5052689;28;20458;-73
2022/03/03 03:04:38;;;;;;;20.23;15.67;;;3.10;99.90;;;;;;5052845;28;20465;-73
2022/03/03 03:07:05;;;;;;;18.83;14.60;;;3.20;99.90;;;;;;5053095;28;20822;-74
2022/03/03 03:09:34;;;;;;;18.87;14.90;;;3.00;99.90;;;;;;5052754;28;20456;-74
2022/03/03 03:12:01;;;;;;;18.90;15.20;;;3.10;99.90;;;;;;5053232;28;20453;-74
2022/03/03 03:14:29;;;;;;;16.40;13.07;;;3.20;99.90;;;;;;5052595;28;20961;-74
2022/03/03 03:16:56;;;;;;;23.00;15.00;;;3.30;99.90;;;;;;5052924;28;20450;-74
2022/03/03 03:19:23;;;;;;;19.43;14.90;;;3.20;99.90;;;;;;5053499;28;20438;-73
2022/03/03 03:21:50;;;;;;;18.70;14.90;;;3.20;99.90;;;;;;5052777;28;20453;-73
2022/03/03 03:24:18;;;;;;;21.03;15.83;;;3.20;99.90;;;;;;5052006;28;20477;-72
2022/03/03 03:26:46;;;;;;;21.27;15.23;;;3.20;99.90;;;;;;5052411;28;20453;-72
2022/03/03 03:29:13;;;;;;;19.73;13.27;;;3.10;99.90;;;;;;5052436;28;20454;-73
2022/03/03 03:31:40;;;;;;;20.60;15.70;;;3.00;99.90;;;;;;5052017;28;20493;-73
2022/03/03 03:34:07;;;;;;;22.60;15.87;;;3.00;99.90;;;;;;5052270;28;20470;-73
2022/03/03 03:36:35;;;;;;;20.87;14.37;;;3.10;99.90;;;;;;5051973;28;20485;-73
2022/03/03 03:39:02;;;;;;;21.37;14.80;;;3.00;99.90;;;;;;5052280;28;20548;-74
2022/03/03 03:41:29;;;;;;;21.17;14.70;;;3.00;99.90;;;;;;5052646;28;20466;-73
2022/03/03 03:43:58;;;;;;;20.47;14.20;;;3.10;99.90;;;;;;5052149;28;20473;-74
2022/03/03 03:46:25;;;;;;;23.30;15.10;;;3.20;99.90;;;;;;5052253;28;20446;-74
2022/03/03 03:48:52;;;;;;;21.03;16.13;;;3.00;99.90;;;;;;5052195;28;20458;-73
2022/03/03 03:51:20;;;;;;;21.07;16.67;;;3.00;99.90;;;;;;5051912;28;20453;-74
2022/03/03 03:53:47;;;;;;;20.20;15.50;;;3.10;99.90;;;;;;5051743;28;20470;-74
2022/03/03 03:56:14;;;;;;;22.20;16.00;;;3.10;99.90;;;;;;5051971;28;20489;-74
2022/03/03 03:58:41;;;;;;;20.73;15.30;;;3.20;99.90;;;;;;5051002;28;20569;-74
2022/03/03 04:01:10;;;;;;;23.60;15.97;;;3.10;99.90;;;;;;5051583;28;20461;-74
2022/03/03 04:03:37;;;;;;;19.30;13.87;;;3.00;99.90;;;;;;5051714;28;20474;-74
2022/03/03 04:06:05;;;;;;;20.50;14.97;;;3.10;99.90;;;;;;5051590;28;20454;-73
2022/03/03 04:08:32;;;;;;;22.20;14.60;;;3.30;99.90;;;;;;5051479;28;20493;-74
2022/03/03 04:10:59;;;;;;;20.40;15.37;;;3.20;99.90;;;;;;5051746;28;20454;-74
2022/03/03 04:13:26;;;;;;;25.23;14.67;;;3.10;99.90;;;;;;5051582;28;20473;-73
2022/03/03 04:15:53;;;;;;;24.63;16.07;;;3.30;99.90;;;;;;5051075;28;20493;-73
2022/03/03 04:18:22;;;;;;;20.77;13.57;;;3.20;99.90;;;;;;5051504;28;20458;-74
2022/03/03 04:20:49;;;;;;;20.60;13.83;;;3.10;99.90;;;;;;5051679;28;20469;-74
2022/03/03 04:23:19;;;;;;;21.80;15.73;;;3.10;99.90;;;;;;5051354;28;20454;-74
2022/03/03 04:25:46;;;;;;;21.37;15.07;;;3.00;99.90;;;;;;5051507;28;20464;-74
2022/03/03 04:28:13;;;;;;;17.83;14.10;;;3.10;99.90;;;;;;5051136;28;20970;-74
2022/03/03 04:30:40;;;;;;;20.17;14.53;;;3.10;99.90;;;;;;5051163;28;20454;-74
2022/03/03 04:33:07;;;;;;;21.80;14.13;;;3.10;99.90;;;;;;5050647;28;20501;-74
2022/03/03 04:35:36;;;;;;;22.80;16.03;;;3.00;99.90;;;;;;5051161;28;20497;-73
2022/03/03 04:38:03;;;;;;;21.83;17.03;;;3.10;99.90;;;;;;5051118;28;20457;-74
2022/03/03 04:40:30;;;;;;;19.30;14.60;;;3.10;99.90;;;;;;5051306;28;20454;-73
2022/03/03 04:42:57;;;;;;;22.40;15.03;;;3.10;99.90;;;;;;5051098;28;20454;-74
2022/03/03 04:45:25;;;;;;;22.40;16.47;;;3.00;99.90;;;;;;5050649;28;20473;-74
2022/03/03 04:47:52;;;;;;;18.80;13.60;;;2.80;99.90;;;;;;5050967;28;20884;-72
2022/03/03 04:50:19;;;;;;;24.40;15.07;;;2.70;99.90;;;;;;5050833;28;20891;-73
2022/03/03 04:52:48;;;;;;;23.90;15.13;;;2.80;99.90;;;;;;5050863;28;20454;-74
2022/03/03 04:55:15;;;;;;;19.53;13.83;;;2.80;99.90;;;;;;5050911;28;20485;-74
2022/03/03 04:57:42;;;;;;;20.97;14.10;;;2.80;99.90;;;;;;5050785;28;20481;-74
2022/03/03 05:00:10;;;;;;;19.50;14.60;;;2.80;99.90;;;;;;5050546;28;20986;-73
2022/03/03 05:02:37;;;;;;;22.67;14.53;;;2.80;99.90;;;;;;5050553;28;20556;-71
2022/03/03 05:05:05;;;;;;;21.07;14.73;;;2.80;99.90;;;;;;5050444;28;21008;-73
2022/03/03 05:07:32;;;;;;;21.80;13.73;;;2.90;99.90;;;;;;5050501;28;20458;-69
2022/03/03 05:10:01;;;;;;;18.70;14.57;;;2.80;99.90;;;;;;5050149;28;20473;-68
2022/03/03 05:12:28;;;;;;;22.80;15.40;;;2.90;99.90;;;;;;5050208;28;20445;-68
2022/03/03 05:14:56;;;;;;;19.50;14.00;;;2.90;99.90;;;;;;5050076;28;20470;-71
2022/03/03 05:17:23;;;;;;;19.83;14.30;;;2.90;99.90;;;;;;5050465;28;21056;-69
2022/03/03 05:19:50;;;;;;;18.80;13.23;;;3.00;99.90;;;;;;5050236;28;20938;-69
2022/03/03 05:22:17;;;;;;;20.13;14.57;;;3.00;99.90;;;;;;5050366;28;20969;-70
2022/03/03 05:24:49;;;;;;;22.50;13.60;;;3.20;99.90;;;;;;5050248;28;20457;-71
2022/03/03 05:27:18;;;;;;;20.27;13.37;;;3.20;99.90;;;;;;5050158;28;20545;-70
2022/03/03 05:29:45;;;;;;;18.27;13.07;;;3.20;99.90;;;;;;5049920;28;20973;-71
2022/03/03 05:32:12;;;;;;;17.90;13.20;;;3.20;99.90;;;;;;5049516;28;20496;-72
2022/03/03 05:34:39;;;;;;;21.37;15.13;;;3.20;99.90;;;;;;5050164;28;20456;-68
2022/03/03 05:37:07;;;;;;;20.83;14.30;;;3.30;99.90;;;;;;5050130;28;20669;-69
2022/03/03 05:39:36;;;;;;;18.40;13.97;;;3.30;99.90;;;;;;5049781;28;20529;-68
2022/03/03 05:42:04;;;;;;;20.10;14.87;;;3.30;99.90;;;;;;5049915;28;20450;-68
2022/03/03 05:44:33;;;;;;;20.60;15.33;;;3.00;99.90;;;;;;5049729;28;20454;-71
2022/03/03 05:47:01;;;;;;;18.63;13.53;;;3.10;99.90;;;;;;5049839;28;20957;-69
2022/03/03 05:49:29;;;;;;;20.63;14.53;;;3.10;99.90;;;;;;5049286;28;20464;-72
2022/03/03 05:51:56;;;;;;;21.27;15.70;;;3.20;99.90;;;;;;5049573;28;20458;-70
2022/03/03 05:54:23;;;;;;;19.90;15.27;;;3.10;99.90;;;;;;5049562;28;20473;-67
2022/03/03 05:56:54;;;;;;;19.00;14.03;;;3.00;99.90;;;;;;5049562;28;20490;-70
2022/03/03 05:59:25;;;;;;;20.40;14.27;;;3.00;99.90;;;;;;5049587;28;20592;-68
2022/03/03 06:01:53;;;;;;;19.77;14.30;;;2.80;99.90;;;;;;5049988;28;20882;-70
2022/03/03 06:04:26;;;;;;;20.90;14.60;;;2.90;99.90;;;;;;5049847;28;20528;-70
2022/03/03 06:06:59;;;;;;;25.70;14.70;;;2.80;99.90;;;;;;5049701;28;20446;-68
2022/03/03 06:09:31;;;;;;;21.07;13.47;;;2.90;99.90;;;;;;5049552;28;20858;-71
2022/03/03 06:12:06;;;;;;;19.83;13.77;;;2.90;99.90;;;;;;5049581;28;20484;-70
2022/03/03 06:14:39;;;;;;;18.90;13.80;;;2.90;99.90;;;;;;5048059;28;20459;-71
2022/03/03 06:17:09;;;;;;;21.27;14.00;;;2.90;99.90;;;;;;5049188;28;20500;-70
2022/03/03 06:19:40;;;;;;;20.87;15.13;;;3.00;99.90;;;;;;5049403;28;20505;-69
2022/03/03 06:22:08;;;;;;;23.70;12.90;;;3.10;99.90;;;;;;5049967;28;20457;-67
2022/03/03 06:24:35;;;;;;;22.30;14.20;;;3.00;99.90;;;;;;5053665;28;20441;-68
2022/03/03 06:27:03;;;;;;;22.63;15.57;;;3.10;99.90;;;;;;5053741;28;20450;-69
2022/03/03 06:29:31;;;;;;;22.70;13.83;;;3.00;99.90;;;;;;5053161;28;20945;-69
2022/03/03 06:31:58;;;;;;;24.60;15.10;;;3.20;99.90;;;;;;5053047;28;20489;-68
2022/03/03 06:34:27;;;;;;;18.43;14.17;;;3.30;99.90;;;;;;5053419;28;20454;-68
2022/03/03 06:36:54;;;;;;;18.47;13.30;;;3.10;99.90;;;;;;5052944;28;20489;-69
2022/03/03 06:39:21;;;;;;;18.93;14.07;;;3.20;99.90;;;;;;5053516;28;20450;-70
2022/03/03 06:41:48;;;;;;;19.13;13.50;;;3.20;99.90;;;;;;5053419;28;20453;-69
2022/03/03 06:44:15;;;;;;;22.83;13.43;;;3.10;99.90;;;;;;5053026;28;20934;-70
2022/03/03 06:46:43;;;;;;;20.57;14.13;;;3.20;99.90;;;;;;5053192;28;20465;-69
2022/03/03 06:49:11;;;;;;;26.37;15.73;;;3.30;99.90;;;;;;5053383;28;20827;-68
2022/03/03 06:51:44;;;;;;;22.50;14.40;;;3.30;99.90;;;;;;5053233;28;20489;-68
2022/03/03 06:54:14;;;;;;;23.33;15.07;;;3.40;99.90;;;;;;5053265;28;20770;-67
2022/03/03 06:56:47;;;;;;;22.87;14.37;;;3.50;99.90;;;;;;5053022;28;20499;-70
2022/03/03 06:59:16;;;;;;;23.20;13.73;;;3.70;99.90;;;;;;5053109;28;20541;-68
2022/03/03 07:01:43;;;;;;;21.80;13.97;;;3.80;99.90;;;;;;5053001;28;20458;-71
2022/03/03 07:04:13;;;;;;;19.90;13.10;;;3.80;99.90;;;;;;5052946;28;20985;-68
2022/03/03 07:06:42;;;;;;;21.20;14.60;;;3.40;99.90;;;;;;5052796;28;20594;-70
2022/03/03 07:09:10;;;;;;;19.57;13.67;;;3.40;99.90;;;;;;5052665;28;20468;-69
2022/03/03 07:11:40;;;;;;;24.90;14.80;;;3.40;99.90;;;;;;5052633;28;20453;-68
2022/03/03 07:14:07;;;;;;;18.73;12.57;;;3.60;99.90;;;;;;5052760;28;20912;-67
2022/03/03 07:16:41;;;;;;;22.80;14.13;;;3.40;99.90;;;;;;5052495;28;20497;-69
2022/03/03 07:19:16;;;;;;;22.37;13.67;;;3.70;99.90;;;;;;5052719;28;20450;-70
2022/03/03 07:21:56;;;;;;;16.83;12.03;;;3.70;99.90;;;;;;5052323;28;20460;-69
2022/03/03 07:24:30;;;;;;;17.50;11.60;;;3.80;99.90;;;;;;5052424;28;20453;-70
2022/03/03 07:27:04;;;;;;;21.33;14.57;;;3.90;99.90;;;;;;5052610;28;20450;-69
2022/03/03 07:29:33;;;;;;;22.67;14.30;;;4.00;99.90;;;;;;5052300;28;21237;-71
2022/03/03 07:32:05;;;;;;;21.20;13.33;;;4.00;99.90;;;;;;5052178;28;20489;-71
2022/03/03 07:34:34;;;;;;;20.20;13.33;;;3.90;99.90;;;;;;5051848;28;20775;-69
2022/03/03 07:37:09;;;;;;;20.53;13.30;;;3.90;99.90;;;;;;5052137;28;20489;-68
2022/03/03 07:39:40;;;;;;;19.30;13.70;;;4.00;99.90;;;;;;5052320;28;20492;-70
2022/03/03 07:42:11;;;;;;;20.20;14.70;;;3.80;99.90;;;;;;5052370;28;20449;-68
2022/03/03 07:44:38;;;;;;;23.20;14.40;;;3.90;99.90;;;;;;5051916;28;20536;-69
2022/03/03 07:47:07;;;;;;;16.90;12.60;;;4.00;99.90;;;;;;5052218;28;20476;-69
2022/03/03 07:49:35;;;;;;;21.23;12.77;;;4.30;99.90;;;;;;5052175;28;20446;-69
2022/03/03 07:52:05;;;;;;;19.17;14.23;;;4.40;99.90;;;;;;5052051;28;20545;-70
2022/03/03 07:54:33;;;;;;;26.13;14.67;;;4.50;99.90;;;;;;5052008;28;20481;-69
2022/03/03 07:57:02;;;;;;;18.70;12.47;;;4.50;99.90;;;;;;5051606;28;20497;-69
2022/03/03 07:59:31;;;;;;;19.57;14.07;;;4.60;99.90;;;;;;5051952;28;20548;-71
2022/03/03 08:02:01;;;;;;;17.43;12.37;;;4.50;99.90;;;;;;5051782;28;20505;-70
2022/03/03 08:04:29;;;;;;;16.70;12.30;;;4.40;99.90;;;;;;5051889;28;20461;-70
2022/03/03 08:07:01;;;;;;;22.90;13.43;;;4.40;99.90;;;;;;5052002;28;20454;-70
2022/03/03 08:09:32;;;;;;;15.97;11.97;;;4.40;99.90;;;;;;5051833;28;20442;-68
2022/03/03 08:12:03;;;;;;;18.57;12.20;;;4.60;99.90;;;;;;5051439;28;20511;-69
2022/03/03 08:14:31;;;;;;;19.00;13.13;;;4.50;99.90;;;;;;5049946;28;20816;-68
2022/03/03 08:16:58;;;;;;;16.50;12.20;;;4.50;99.90;;;;;;5051651;28;20490;-71
2022/03/03 08:19:25;;;;;;;21.57;14.20;;;4.50;99.90;;;;;;5051758;28;20453;-68
2022/03/03 08:21:52;;;;;;;18.37;12.60;;;4.60;99.90;;;;;;5050062;28;20946;-69
2022/03/03 08:24:20;;;;;;;19.80;12.20;;;4.60;99.90;;;;;;5051481;28;20454;-70
2022/03/03 08:26:48;;;;;;;18.07;13.07;;;4.90;99.90;;;;;;5051627;28;20469;-68
2022/03/03 08:29:15;;;;;;;19.03;13.40;;;4.80;99.90;;;;;;5051644;28;20453;-69
2022/03/03 08:31:44;;;;;;;21.80;11.93;;;4.80;99.90;;;;;;5051213;28;20489;-77
2022/03/03 08:34:20;;;;;;;16.80;12.23;;;4.90;99.90;;;;;;5051150;28;20450;-74
2022/03/03 08:36:54;;;;;;;20.20;12.93;;;5.00;99.90;;;;;;5050998;28;21060;-75
2022/03/03 08:39:28;;;;;;;18.27;14.07;;;4.90;99.90;;;;;;5051841;28;20900;-71
2022/03/03 08:42:02;;;;;;;17.00;12.43;;;5.00;99.90;;;;;;5052073;28;20453;-73
2022/03/03 08:44:34;;;;;;;20.33;14.20;;;5.10;99.90;;;;;;5053328;28;20821;-79
2022/03/03 08:47:04;;;;;;;25.53;13.30;;;5.30;99.90;;;;;;5053141;28;20451;-70
2022/03/03 08:49:36;;;;;;;16.50;11.80;;;5.30;99.90;;;;;;5051371;28;20458;-73
2022/03/03 08:52:04;;;;;;;19.70;12.83;;;5.30;99.90;;;;;;5051103;28;20500;-75
2022/03/03 08:54:31;;;;;;;16.50;12.10;;;4.90;99.90;;;;;;5051086;28;20454;-81
2022/03/03 08:57:00;;;;;;;19.60;12.43;;;5.10;99.90;;;;;;5052031;28;20488;-78
2022/03/03 08:59:28;;;;;;;18.60;12.10;;;5.30;99.90;;;;;;5051515;28;20457;-80
2022/03/03 09:01:56;;;;;;;20.07;12.90;;;5.40;99.90;;;;;;5050521;28;20454;-80
2022/03/03 09:04:24;;;;;;;17.37;13.37;;;5.40;99.90;;;;;;5050935;28;20493;-78
2022/03/03 09:06:51;;;;;;;23.33;13.70;;;5.40;99.90;;;;;;5050586;28;20481;-83
2022/03/03 09:09:18;;;;;;;21.00;12.30;;;5.20;99.90;;;;;;5050736;28;20794;-79
2022/03/03 09:11:45;;;;;;;17.20;12.43;;;5.10;99.90;;;;;;5050528;28;20937;-66
2022/03/03 09:14:14;;;;;;;17.50;12.33;;;5.30;99.90;;;;;;5050234;28;20481;-70
2022/03/03 09:16:41;;;;;;;16.83;11.63;;;5.20;99.90;;;;;;5049982;28;20494;-78
2022/03/03 09:19:08;;;;;;;21.47;12.37;;;5.10;99.90;;;;;;5050283;28;20458;-76
2022/03/03 09:21:35;;;;;;;17.63;12.30;;;5.20;99.90;;;;;;5050204;28;21003;-74
2022/03/03 09:24:02;;;;;;;18.43;11.80;;;5.10;99.90;;;;;;5050210;28;20977;-70
2022/03/03 09:26:29;;;;;;;17.97;12.13;;;5.30;99.90;;;;;;5050030;28;20477;-69
2022/03/03 09:28:56;;;;;;;16.60;11.77;;;5.40;99.90;;;;;;5049989;28;20535;-77
2022/03/03 09:31:25;;;;;;;18.70;12.67;;;5.40;99.90;;;;;;5049632;28;20465;-77
2022/03/03 09:33:52;;;;;;;17.37;13.13;;;5.50;99.90;;;;;;5049848;28;20465;-69
2022/03/03 09:36:19;;;;;;;17.50;13.00;;;5.70;99.90;;;;;;5049684;28;20473;-71
2022/03/03 09:38:47;;;;;;;22.17;13.57;;;5.70;99.90;;;;;;5049756;28;20825;-72
2022/03/03 09:41:14;;;;;;;17.47;12.80;;;5.60;99.90;;;;;;5049408;28;20958;-80
2022/03/03 09:43:42;;;;;;;19.30;12.47;;;5.70;99.90;;;;;;5049731;28;20450;-79
2022/03/03 09:46:09;;;;;;;16.87;11.97;;;5.80;99.90;;;;;;5049615;28;20531;-80
2022/03/03 09:48:38;;;;;;;17.60;12.53;;;6.00;99.90;;;;;;5049697;28;20446;-78
2022/03/03 09:51:05;;;;;;;18.70;11.50;;;6.20;99.90;;;;;;5049741;28;20461;-78
2022/03/03 09:53:33;;;;;;;19.97;12.20;;;6.30;99.90;;;;;;5049438;28;20540;-80
2022/03/03 09:56:00;;;;;;;15.60;11.33;;;6.50;99.90;;;;;;5049591;28;20466;-80
2022/03/03 09:58:27;;;;;;;13.70;10.53;;;6.40;99.90;;;;;;5049414;28;20497;-81
2022/03/03 10:00:57;;;;;;;18.33;13.00;;;6.50;99.80;;;;;;5049711;28;20508;-80
2022/03/03 10:03:24;;;;;;;17.77;11.90;;;6.30;99.90;;;;;;5049692;28;20453;-65
2022/03/03 10:05:56;;;;;;;18.07;12.10;;;6.20;99.90;;;;;;5049486;28;20473;-67
2022/03/03 10:08:25;;;;;;;14.73;11.30;;;6.20;99.50;;;;;;5047982;28;20449;-66
2022/03/03 10:10:54;;;;;;;14.77;11.53;;;6.10;99.60;;;;;;5049206;28;20457;-67
2022/03/03 10:13:22;;;;;;;18.97;11.77;;;5.90;99.50;;;;;;5049575;28;20458;-66
2022/03/03 10:15:53;;;;;;;15.73;12.23;;;5.80;99.90;;;;;;5049302;28;20473;-69
2022/03/03 10:18:22;;;;;;;16.77;11.53;;;5.90;99.90;;;;;;5049537;28;20485;-75
2022/03/03 10:20:53;;;;;;;16.80;11.90;;;6.10;99.90;;;;;;5049026;28;20814;-70
2022/03/03 10:23:24;;;;;;;16.67;10.87;;;6.20;99.90;;;;;;5049160;28;20904;-74
2022/03/03 10:25:53;;;;;;;17.80;11.80;;;6.30;99.40;;;;;;5049081;28;20470;-74
2022/03/03 10:28:22;;;;;;;16.23;11.40;;;6.40;99.50;;;;;;5049184;28;20457;-74
2022/03/03 10:30:58;;;;;;;20.27;13.03;;;6.50;99.30;;;;;;5049423;28;20505;-74
2022/03/03 10:33:29;;;;;;;17.53;12.83;;;6.40;99.20;;;;;;5049208;28;20513;-73
2022/03/03 10:36:09;;;;;;;17.37;11.30;;;6.60;98.90;;;;;;5049143;28;20593;-74
2022/03/03 10:38:53;;;;;;;17.17;11.07;;;6.40;98.60;;;;;;5049002;28;20504;-74
2022/03/03 10:41:35;;;;;;;15.07;10.43;;;6.30;98.00;;;;;;5049596;28;20481;-74
2022/03/03 10:44:06;;;;;;;15.17;10.57;;;6.30;98.80;;;;;;5049149;28;20477;-74
2022/03/03 10:46:33;;;;;;;17.60;12.47;;;6.40;98.10;;;;;;5048852;28;20477;-74
2022/03/03 10:49:17;;;;;;;15.43;11.13;;;6.30;98.40;;;;;;5049233;28;20446;-73
2022/03/03 10:51:46;;;;;;;15.87;11.53;;;6.20;98.90;;;;;;5049616;28;20446;-73
2022/03/03 10:54:13;;;;;;;16.00;11.90;;;6.30;98.70;;;;;;5049240;28;20481;-73
2022/03/03 10:56:45;;;;;;;17.07;10.53;;;6.40;98.50;;;;;;5048575;28;20552;-74
2022/03/03 10:59:17;;;;;;;16.70;11.57;;;6.40;98.40;;;;;;5048992;28;20457;-75
2022/03/03 11:01:45;;;;;;;16.03;11.20;;;6.40;98.20;;;;;;5049015;28;20458;-74
2022/03/03 11:04:18;;;;;;;18.03;11.20;;;6.50;97.90;;;;;;5049180;28;20489;-73
2022/03/03 11:06:49;;;;;;;15.23;10.47;;;6.40;98.00;;;;;;5049039;28;20510;-74
2022/03/03 11:09:17;;;;;;;15.80;10.47;;;6.20;97.50;;;;;;5051252;28;20446;-74
2022/03/03 11:11:44;;;;;;;16.03;11.40;;;6.10;97.90;;;;;;5052723;28;20533;-74
2022/03/03 11:14:12;;;;;;;18.37;10.93;;;6.30;98.00;;;;;;5052681;28;20454;-74
2022/03/03 11:16:41;;;;;;;15.73;11.77;;;6.20;97.50;;;;;;5052842;28;20501;-74
2022/03/03 11:19:09;;;;;;;17.90;10.90;;;6.10;97.70;;;;;;5052716;28;20493;-74
2022/03/03 11:21:36;;;;;;;15.53;12.10;;;6.00;97.90;;;;;;5052400;28;20873;-74
2022/03/03 11:24:05;;;;;;;16.03;11.70;;;6.00;97.60;;;;;;5052493;28;20795;-72
2022/03/03 11:26:36;;;;;;;18.37;11.50;;;6.00;98.10;;;;;;5052364;28;20970;-74
2022/03/03 11:29:09;;;;;;;14.93;10.33;;;6.20;98.40;;;;;;5052165;28;20453;-73
2022/03/03 11:31:37;;;;;;;15.93;10.67;;;6.10;97.70;;;;;;5052014;28;20462;-74
2022/03/03 11:34:23;;;;;;;17.53;12.00;;;6.00;98.20;;;;;;5050830;28;20458;-75
2022/03/03 11:36:59;;;;;;;20.60;12.23;;;6.10;98.10;;;;;;5052341;28;20473;-74
2022/03/03 11:39:43;;;;;;;16.77;11.53;;;6.10;98.40;;;;;;5052667;28;20828;-73
2022/03/03 11:42:29;;;;;;;17.00;11.67;;;6.10;97.30;;;;;;5052345;28;20441;-74
2022/03/03 11:44:58;;;;;;;14.53;11.30;;;6.20;97.60;;;;;;5052101;28;20474;-74
2022/03/03 11:47:27;;;;;;;18.53;11.40;;;6.10;97.20;;;;;;5052091;28;20442;-74
2022/03/03 11:50:19;;;;;;;18.43;11.90;;;6.10;97.10;;;;;;5052391;28;20486;-73
2022/03/03 11:52:51;;;;;;;18.47;12.73;;;6.10;97.40;;;;;;5037037;28;20470;-74
2022/03/03 11:55:35;;;;;;;13.33;10.00;;;6.00;97.60;;;;;;5051810;28;20497;-74
2022/03/03 11:58:06;;;;;;;14.10;10.50;;;6.00;97.60;;;;;;5051826;28;20493;-74
2022/03/03 12:00:35;;;;;;;14.23;11.10;;;5.90;97.20;;;;;;5051771;28;20454;-73
2022/03/03 12:03:04;;;;;;;14.30;10.50;;;6.10;97.80;;;;;;5051708;28;20450;-74
2022/03/03 12:05:40;;;;;;;18.90;12.47;;;6.10;97.80;;;;;;5051656;28;20474;-75
2022/03/03 12:08:32;;;;;;;15.10;11.17;;;6.30;97.60;;;;;;5051749;28;20484;-73
2022/03/03 12:11:06;;;;;;;16.10;11.17;;;6.50;97.80;;;;;;5051799;28;20480;-73
2022/03/03 12:13:35;;;;;;;15.87;10.40;;;6.80;97.00;;;;;;5051606;28;20535;-74
2022/03/03 12:16:20;;;;;;;18.07;12.03;;;6.90;97.00;;;;;;5051668;28;20466;-73
2022/03/03 12:18:49;;;;;;;15.27;12.23;;;6.80;95.50;;;;;;5051586;28;20477;-74
2022/03/03 12:21:31;;;;;;;25.77;12.70;;;6.80;96.00;;;;;;5050530;28;20545;-74
2022/03/03 12:24:35;;;;;;;15.50;10.50;;;7.00;96.10;;;;;;5051459;28;20561;-74
2022/03/03 12:27:18;;;;;;;13.90;10.20;;;6.90;95.20;;;;;;5051640;28;20454;-72
2022/03/03 12:29:52;;;;;;;16.63;10.73;;;7.00;94.40;;;;;;5051441;28;20453;-74
2022/03/03 12:32:37;;;;;;;15.43;11.20;;;7.10;94.40;;;;;;5050868;28;20580;-75
2022/03/03 12:35:09;;;;;;;14.17;8.83;;;7.20;94.20;;;;;;5051333;28;20473;-73
2022/03/03 12:37:43;;;;;;;15.10;10.07;;;7.40;93.00;;;;;;5051215;28;20576;-73
2022/03/03 12:40:12;;;;;;;15.20;11.27;;;7.30;92.80;;;;;;5051314;28;20462;-74
2022/03/03 12:42:45;;;;;;;14.00;10.77;;;7.40;93.50;;;;;;5051424;28;20458;-73
2022/03/03 12:45:15;;;;;;;13.23;10.53;;;7.70;92.90;;;;;;5050596;28;20535;-74
2022/03/03 12:47:46;;;;;;;18.13;11.00;;;7.80;92.50;;;;;;5050878;28;20442;-74
2022/03/03 12:50:15;;;;;;;15.67;10.33;;;7.90;92.40;;;;;;5050885;28;20458;-75